sensor_id;sensor_type;location;lat;lon;timestamp;P1;durP1;ratioP1;P2;durP2;ratioP2
13609;SDS011;6876;50.788;4.940;2022-10-16T00:01:18;3.10;;;2.90;;
13609;SDS011;6876;50.788;4.940;2022-10-16T00:04:08;2.87;;;2.67;;
13609;SDS011;6876;50.788;4.940;2022-10-16T00:06:56;2.50;;;2.40;;
13609;SDS011;6876;50.788;4.940;2022-10-16T00:09:43;3.27;;;2.57;;
13609;SDS011;6876;50.788;4.940;2022-10-16T00:12:30;2.83;;;2.63;;
13609;SDS011;6876;50.788;4.940;2022-10-16T00:15:17;2.63;;;2.53;;
13609;SDS011;6876;50.788;4.940;2022-10-16T00:18:06;3.43;;;2.90;;
13609;SDS011;6876;50.788;4.940;2022-10-16T00:20:53;2.80;;;2.60;;
13609;SDS011;6876;50.788;4.940;2022-10-16T00:23:41;4.30;;;2.77;;
13609;SDS011;6876;50.788;4.940;2022-10-16T00:26:29;2.73;;;2.53;;
13609;SDS011;6876;50.788;4.940;2022-10-16T00:29:18;2.70;;;2.50;;
13609;SDS011;6876;50.788;4.940;2022-10-16T00:32:05;3.10;;;2.90;;
13609;SDS011;6876;50.788;4.940;2022-10-16T00:34:54;2.87;;;2.63;;
13609;SDS011;6876;50.788;4.940;2022-10-16T00:37:41;2.83;;;2.63;;
13609;SDS011;6876;50.788;4.940;2022-10-16T00:40:28;2.63;;;2.53;;
13609;SDS011;6876;50.788;4.940;2022-10-16T00:46:20;3.03;;;2.50;;
13609;SDS011;6876;50.788;4.940;2022-10-16T00:49:10;2.90;;;2.43;;
13609;SDS011;6876;50.788;4.940;2022-10-16T00:52:00;3.70;;;2.40;;
13609;SDS011;6876;50.788;4.940;2022-10-16T00:54:47;2.97;;;2.57;;
13609;SDS011;6876;50.788;4.940;2022-10-16T00:57:36;2.73;;;2.47;;
13609;SDS011;6876;50.788;4.940;2022-10-16T01:00:25;2.80;;;2.53;;
13609;SDS011;6876;50.788;4.940;2022-10-16T01:03:23;4.63;;;2.53;;
13609;SDS011;6876;50.788;4.940;2022-10-16T01:06:23;3.03;;;2.80;;
13609;SDS011;6876;50.788;4.940;2022-10-16T01:09:16;3.63;;;2.30;;
13609;SDS011;6876;50.788;4.940;2022-10-16T01:12:09;2.87;;;2.00;;
13609;SDS011;6876;50.788;4.940;2022-10-16T01:15:02;2.70;;;2.23;;
13609;SDS011;6876;50.788;4.940;2022-10-16T01:17:57;2.57;;;2.33;;
13609;SDS011;6876;50.788;4.940;2022-10-16T01:20:51;2.70;;;2.50;;
13609;SDS011;6876;50.788;4.940;2022-10-16T01:23:43;2.70;;;2.37;;
13609;SDS011;6876;50.788;4.940;2022-10-16T01:26:44;3.03;;;2.60;;
13609;SDS011;6876;50.788;4.940;2022-10-16T01:29:58;5.70;;;2.67;;
13609;SDS011;6876;50.788;4.940;2022-10-16T01:32:52;2.77;;;2.57;;
13609;SDS011;6876;50.788;4.940;2022-10-16T01:35:44;2.80;;;2.63;;
13609;SDS011;6876;50.788;4.940;2022-10-16T01:38:37;3.93;;;3.00;;
13609;SDS011;6876;50.788;4.940;2022-10-16T01:41:26;4.20;;;2.80;;
13609;SDS011;6876;50.788;4.940;2022-10-16T01:44:19;3.10;;;2.90;;
13609;SDS011;6876;50.788;4.940;2022-10-16T01:47:11;3.17;;;2.87;;
13609;SDS011;6876;50.788;4.940;2022-10-16T01:50:00;4.57;;;2.90;;
13609;SDS011;6876;50.788;4.940;2022-10-16T01:52:51;3.13;;;2.93;;
13609;SDS011;6876;50.788;4.940;2022-10-16T01:55:40;3.03;;;2.70;;
13609;SDS011;6876;50.788;4.940;2022-10-16T01:58:31;2.87;;;2.67;;
13609;SDS011;6876;50.788;4.940;2022-10-16T02:01:23;4.17;;;3.27;;
13609;SDS011;6876;50.788;4.940;2022-10-16T02:04:14;3.33;;;3.13;;
13609;SDS011;6876;50.788;4.940;2022-10-16T02:07:08;3.43;;;3.13;;
13609;SDS011;6876;50.788;4.940;2022-10-16T02:09:56;6.10;;;3.20;;
13609;SDS011;6876;50.788;4.940;2022-10-16T02:12:44;4.10;;;2.90;;
13609;SDS011;6876;50.788;4.940;2022-10-16T02:15:33;3.43;;;3.17;;
13609;SDS011;6876;50.788;4.940;2022-10-16T02:18:22;3.20;;;2.87;;
13609;SDS011;6876;50.788;4.940;2022-10-16T02:21:13;3.47;;;3.13;;
13609;SDS011;6876;50.788;4.940;2022-10-16T02:24:07;5.10;;;3.10;;
13609;SDS011;6876;50.788;4.940;2022-10-16T02:27:01;3.20;;;3.00;;
13609;SDS011;6876;50.788;4.940;2022-10-16T02:29:54;3.00;;;2.70;;
13609;SDS011;6876;50.788;4.940;2022-10-16T02:32:45;4.70;;;2.90;;
13609;SDS011;6876;50.788;4.940;2022-10-16T02:35:36;3.73;;;3.20;;
13609;SDS011;6876;50.788;4.940;2022-10-16T02:38:24;4.73;;;3.27;;
13609;SDS011;6876;50.788;4.940;2022-10-16T02:41:12;3.17;;;2.97;;
13609;SDS011;6876;50.788;4.940;2022-10-16T02:44:00;3.30;;;3.10;;
13609;SDS011;6876;50.788;4.940;2022-10-16T02:46:47;3.37;;;3.00;;
13609;SDS011;6876;50.788;4.940;2022-10-16T02:49:34;4.53;;;3.07;;
13609;SDS011;6876;50.788;4.940;2022-10-16T02:52:22;3.70;;;3.27;;
13609;SDS011;6876;50.788;4.940;2022-10-16T02:55:10;3.40;;;3.20;;
13609;SDS011;6876;50.788;4.940;2022-10-16T02:57:57;3.80;;;3.13;;
13609;SDS011;6876;50.788;4.940;2022-10-16T03:00:44;3.70;;;3.37;;
13609;SDS011;6876;50.788;4.940;2022-10-16T03:03:31;4.93;;;3.43;;
13609;SDS011;6876;50.788;4.940;2022-10-16T03:06:19;4.00;;;3.70;;
13609;SDS011;6876;50.788;4.940;2022-10-16T03:09:07;6.57;;;3.70;;
13609;SDS011;6876;50.788;4.940;2022-10-16T03:11:54;4.30;;;3.57;;
13609;SDS011;6876;50.788;4.940;2022-10-16T03:14:42;4.47;;;4.07;;
13609;SDS011;6876;50.788;4.940;2022-10-16T03:17:29;5.73;;;3.93;;
13609;SDS011;6876;50.788;4.940;2022-10-16T03:20:16;4.30;;;3.93;;
13609;SDS011;6876;50.788;4.940;2022-10-16T03:23:03;5.13;;;4.73;;
13609;SDS011;6876;50.788;4.940;2022-10-16T03:25:53;7.70;;;5.60;;
13609;SDS011;6876;50.788;4.940;2022-10-16T03:28:40;8.00;;;4.90;;
13609;SDS011;6876;50.788;4.940;2022-10-16T03:31:27;8.43;;;4.73;;
13609;SDS011;6876;50.788;4.940;2022-10-16T03:34:15;5.40;;;4.90;;
13609;SDS011;6876;50.788;4.940;2022-10-16T03:37:02;5.43;;;5.03;;
13609;SDS011;6876;50.788;4.940;2022-10-16T03:39:50;5.97;;;5.37;;
13609;SDS011;6876;50.788;4.940;2022-10-16T03:42:38;5.67;;;5.27;;
13609;SDS011;6876;50.788;4.940;2022-10-16T03:45:26;9.23;;;5.27;;
13609;SDS011;6876;50.788;4.940;2022-10-16T03:48:13;5.57;;;5.17;;
13609;SDS011;6876;50.788;4.940;2022-10-16T03:51:00;4.87;;;4.57;;
13609;SDS011;6876;50.788;4.940;2022-10-16T03:53:47;5.67;;;5.17;;
13609;SDS011;6876;50.788;4.940;2022-10-16T03:56:34;5.17;;;4.87;;
13609;SDS011;6876;50.788;4.940;2022-10-16T03:59:23;5.47;;;4.97;;
13609;SDS011;6876;50.788;4.940;2022-10-16T04:02:10;5.07;;;4.67;;
13609;SDS011;6876;50.788;4.940;2022-10-16T04:04:57;4.97;;;4.57;;
13609;SDS011;6876;50.788;4.940;2022-10-16T04:07:44;5.33;;;4.83;;
13609;SDS011;6876;50.788;4.940;2022-10-16T04:10:32;4.80;;;4.50;;
13609;SDS011;6876;50.788;4.940;2022-10-16T04:13:19;5.23;;;4.93;;
13609;SDS011;6876;50.788;4.940;2022-10-16T04:16:07;5.90;;;4.57;;
13609;SDS011;6876;50.788;4.940;2022-10-16T04:18:55;5.43;;;5.03;;
13609;SDS011;6876;50.788;4.940;2022-10-16T04:21:42;6.10;;;5.53;;
13609;SDS011;6876;50.788;4.940;2022-10-16T04:24:29;5.60;;;5.17;;
13609;SDS011;6876;50.788;4.940;2022-10-16T04:27:16;6.07;;;5.60;;
13609;SDS011;6876;50.788;4.940;2022-10-16T04:30:04;5.80;;;5.30;;
13609;SDS011;6876;50.788;4.940;2022-10-16T04:32:53;5.80;;;5.30;;
13609;SDS011;6876;50.788;4.940;2022-10-16T04:35:40;6.27;;;5.67;;
13609;SDS011;6876;50.788;4.940;2022-10-16T04:38:27;8.30;;;6.63;;
13609;SDS011;6876;50.788;4.940;2022-10-16T04:41:15;9.77;;;5.73;;
13609;SDS011;6876;50.788;4.940;2022-10-16T04:44:02;6.43;;;5.80;;
13609;SDS011;6876;50.788;4.940;2022-10-16T04:46:50;7.77;;;6.00;;
13609;SDS011;6876;50.788;4.940;2022-10-16T04:49:39;6.20;;;5.70;;
13609;SDS011;6876;50.788;4.940;2022-10-16T04:52:26;5.97;;;5.43;;
13609;SDS011;6876;50.788;4.940;2022-10-16T04:55:13;5.90;;;5.50;;
13609;SDS011;6876;50.788;4.940;2022-10-16T04:58:00;6.63;;;6.03;;
13609;SDS011;6876;50.788;4.940;2022-10-16T05:00:48;6.70;;;6.00;;
13609;SDS011;6876;50.788;4.940;2022-10-16T05:03:35;7.53;;;5.90;;
13609;SDS011;6876;50.788;4.940;2022-10-16T05:06:23;6.60;;;6.10;;
13609;SDS011;6876;50.788;4.940;2022-10-16T05:09:11;6.63;;;6.10;;
13609;SDS011;6876;50.788;4.940;2022-10-16T05:11:58;6.43;;;5.83;;
13609;SDS011;6876;50.788;4.940;2022-10-16T05:14:45;6.83;;;6.23;;
13609;SDS011;6876;50.788;4.940;2022-10-16T05:17:32;6.63;;;6.00;;
13609;SDS011;6876;50.788;4.940;2022-10-16T05:20:19;6.30;;;5.80;;
13609;SDS011;6876;50.788;4.940;2022-10-16T05:23:08;7.23;;;6.13;;
13609;SDS011;6876;50.788;4.940;2022-10-16T05:25:56;8.07;;;6.07;;
13609;SDS011;6876;50.788;4.940;2022-10-16T05:28:44;7.87;;;6.17;;
13609;SDS011;6876;50.788;4.940;2022-10-16T05:31:31;6.97;;;6.33;;
13609;SDS011;6876;50.788;4.940;2022-10-16T05:34:18;10.00;;;6.40;;
13609;SDS011;6876;50.788;4.940;2022-10-16T05:37:05;8.10;;;7.57;;
13609;SDS011;6876;50.788;4.940;2022-10-16T05:39:54;7.70;;;6.53;;
13609;SDS011;6876;50.788;4.940;2022-10-16T05:42:41;8.07;;;5.90;;
13609;SDS011;6876;50.788;4.940;2022-10-16T05:45:29;7.43;;;6.73;;
13609;SDS011;6876;50.788;4.940;2022-10-16T05:48:16;6.47;;;5.97;;
13609;SDS011;6876;50.788;4.940;2022-10-16T05:51:03;6.87;;;6.27;;
13609;SDS011;6876;50.788;4.940;2022-10-16T05:53:52;7.00;;;6.03;;
13609;SDS011;6876;50.788;4.940;2022-10-16T05:56:41;6.10;;;5.60;;
13609;SDS011;6876;50.788;4.940;2022-10-16T05:59:28;6.63;;;5.87;;
13609;SDS011;6876;50.788;4.940;2022-10-16T06:02:15;10.70;;;6.30;;
13609;SDS011;6876;50.788;4.940;2022-10-16T06:05:03;8.00;;;6.33;;
13609;SDS011;6876;50.788;4.940;2022-10-16T06:07:50;7.00;;;6.27;;
13609;SDS011;6876;50.788;4.940;2022-10-16T06:10:37;7.13;;;6.43;;
13609;SDS011;6876;50.788;4.940;2022-10-16T06:13:26;12.60;;;6.07;;
13609;SDS011;6876;50.788;4.940;2022-10-16T06:16:13;9.47;;;5.57;;
13609;SDS011;6876;50.788;4.940;2022-10-16T06:19:01;14.50;;;6.80;;
13609;SDS011;6876;50.788;4.940;2022-10-16T06:21:51;6.60;;;6.10;;
13609;SDS011;6876;50.788;4.940;2022-10-16T06:24:38;6.93;;;6.43;;
13609;SDS011;6876;50.788;4.940;2022-10-16T06:27:25;7.87;;;7.17;;
13609;SDS011;6876;50.788;4.940;2022-10-16T06:30:14;7.10;;;6.50;;
13609;SDS011;6876;50.788;4.940;2022-10-16T06:33:01;8.20;;;6.37;;
13609;SDS011;6876;50.788;4.940;2022-10-16T06:35:48;6.63;;;6.13;;
13609;SDS011;6876;50.788;4.940;2022-10-16T06:38:36;7.33;;;6.67;;
13609;SDS011;6876;50.788;4.940;2022-10-16T06:41:24;8.47;;;7.27;;
13609;SDS011;6876;50.788;4.940;2022-10-16T06:44:11;7.60;;;7.00;;
13609;SDS011;6876;50.788;4.940;2022-10-16T06:46:59;9.60;;;6.50;;
13609;SDS011;6876;50.788;4.940;2022-10-16T06:49:47;6.63;;;6.13;;
13609;SDS011;6876;50.788;4.940;2022-10-16T06:52:34;6.47;;;5.93;;
13609;SDS011;6876;50.788;4.940;2022-10-16T06:55:21;7.07;;;6.67;;
13609;SDS011;6876;50.788;4.940;2022-10-16T06:58:09;9.47;;;7.03;;
13609;SDS011;6876;50.788;4.940;2022-10-16T07:00:57;7.97;;;7.37;;
13609;SDS011;6876;50.788;4.940;2022-10-16T07:03:45;8.83;;;8.13;;
13609;SDS011;6876;50.788;4.940;2022-10-16T07:06:33;8.23;;;7.53;;
13609;SDS011;6876;50.788;4.940;2022-10-16T07:09:21;9.43;;;8.63;;
13609;SDS011;6876;50.788;4.940;2022-10-16T07:12:08;9.27;;;8.37;;
13609;SDS011;6876;50.788;4.940;2022-10-16T07:14:55;8.73;;;8.03;;
13609;SDS011;6876;50.788;4.940;2022-10-16T07:17:42;8.70;;;7.90;;
13609;SDS011;6876;50.788;4.940;2022-10-16T07:20:32;8.53;;;7.83;;
13609;SDS011;6876;50.788;4.940;2022-10-16T07:23:21;8.97;;;8.23;;
13609;SDS011;6876;50.788;4.940;2022-10-16T07:26:08;8.90;;;8.10;;
13609;SDS011;6876;50.788;4.940;2022-10-16T07:28:56;7.47;;;6.80;;
13609;SDS011;6876;50.788;4.940;2022-10-16T07:31:44;5.70;;;5.30;;
13609;SDS011;6876;50.788;4.940;2022-10-16T07:34:31;6.73;;;4.40;;
13609;SDS011;6876;50.788;4.940;2022-10-16T07:37:20;4.63;;;4.23;;
13609;SDS011;6876;50.788;4.940;2022-10-16T07:40:08;5.60;;;3.20;;
13609;SDS011;6876;50.788;4.940;2022-10-16T07:42:55;3.37;;;3.17;;
13609;SDS011;6876;50.788;4.940;2022-10-16T07:45:46;4.47;;;4.28;;
13609;SDS011;6876;50.788;4.940;2022-10-16T07:48:34;3.40;;;3.20;;
13609;SDS011;6876;50.788;4.940;2022-10-16T07:51:22;3.65;;;3.35;;
13609;SDS011;6876;50.788;4.940;2022-10-16T07:54:12;3.25;;;2.95;;
13609;SDS011;6876;50.788;4.940;2022-10-16T07:56:59;3.70;;;3.40;;
13609;SDS011;6876;50.788;4.940;2022-10-16T07:59:46;4.47;;;3.92;;
13609;SDS011;6876;50.788;4.940;2022-10-16T08:02:33;4.40;;;2.67;;
13609;SDS011;6876;50.788;4.940;2022-10-16T08:05:20;4.88;;;2.20;;
13609;SDS011;6876;50.788;4.940;2022-10-16T08:08:10;2.85;;;2.35;;
13609;SDS011;6876;50.788;4.940;2022-10-16T08:11:00;2.85;;;2.33;;
13609;SDS011;6876;50.788;4.940;2022-10-16T08:13:49;3.78;;;2.10;;
13609;SDS011;6876;50.788;4.940;2022-10-16T08:16:36;4.55;;;2.38;;
13609;SDS011;6876;50.788;4.940;2022-10-16T08:19:23;5.70;;;2.75;;
13609;SDS011;6876;50.788;4.940;2022-10-16T08:22:10;2.67;;;2.15;;
13609;SDS011;6876;50.788;4.940;2022-10-16T08:24:58;2.55;;;2.28;;
13609;SDS011;6876;50.788;4.940;2022-10-16T08:27:46;4.90;;;4.53;;
13609;SDS011;6876;50.788;4.940;2022-10-16T08:30:34;2.13;;;2.00;;
13609;SDS011;6876;50.788;4.940;2022-10-16T08:33:21;3.70;;;3.40;;
13609;SDS011;6876;50.788;4.940;2022-10-16T08:36:09;3.22;;;2.75;;
13609;SDS011;6876;50.788;4.940;2022-10-16T08:38:57;5.25;;;2.75;;
13609;SDS011;6876;50.788;4.940;2022-10-16T08:42:00;2.40;;;2.10;;
13609;SDS011;6876;50.788;4.940;2022-10-16T08:45:12;3.25;;;2.10;;
13609;SDS011;6876;50.788;4.940;2022-10-16T08:48:17;3.80;;;3.10;;
13609;SDS011;6876;50.788;4.940;2022-10-16T08:51:09;2.42;;;2.00;;
13609;SDS011;6876;50.788;4.940;2022-10-16T08:54:01;2.83;;;2.08;;
13609;SDS011;6876;50.788;4.940;2022-10-16T08:56:50;3.97;;;2.47;;
13609;SDS011;6876;50.788;4.940;2022-10-16T08:59:40;4.35;;;3.08;;
13609;SDS011;6876;50.788;4.940;2022-10-16T09:02:31;4.47;;;3.13;;
13609;SDS011;6876;50.788;4.940;2022-10-16T09:05:30;4.13;;;2.85;;
13609;SDS011;6876;50.788;4.940;2022-10-16T09:08:36;3.85;;;2.67;;
13609;SDS011;6876;50.788;4.940;2022-10-16T09:11:35;4.50;;;3.05;;
13609;SDS011;6876;50.788;4.940;2022-10-16T09:14:34;5.18;;;2.50;;
13609;SDS011;6876;50.788;4.940;2022-10-16T09:17:39;4.25;;;2.38;;
13609;SDS011;6876;50.788;4.940;2022-10-16T09:20:38;3.85;;;3.53;;
13609;SDS011;6876;50.788;4.940;2022-10-16T09:23:33;3.60;;;1.92;;
13609;SDS011;6876;50.788;4.940;2022-10-16T09:26:23;3.78;;;1.75;;
13609;SDS011;6876;50.788;4.940;2022-10-16T09:29:10;2.75;;;1.67;;
13609;SDS011;6876;50.788;4.940;2022-10-16T09:32:06;3.88;;;2.10;;
13609;SDS011;6876;50.788;4.940;2022-10-16T09:34:58;4.78;;;2.15;;
13609;SDS011;6876;50.788;4.940;2022-10-16T09:37:47;4.53;;;1.92;;
13609;SDS011;6876;50.788;4.940;2022-10-16T09:40:37;2.88;;;1.83;;
13609;SDS011;6876;50.788;4.940;2022-10-16T09:43:26;6.18;;;1.50;;
13609;SDS011;6876;50.788;4.940;2022-10-16T09:46:21;2.05;;;1.63;;
13609;SDS011;6876;50.788;4.940;2022-10-16T09:49:20;2.65;;;1.73;;
13609;SDS011;6876;50.788;4.940;2022-10-16T09:52:13;3.22;;;1.70;;
13609;SDS011;6876;50.788;4.940;2022-10-16T09:55:09;5.05;;;2.50;;
13609;SDS011;6876;50.788;4.940;2022-10-16T09:58:00;5.40;;;2.08;;
13609;SDS011;6876;50.788;4.940;2022-10-16T10:00:50;6.40;;;2.10;;
13609;SDS011;6876;50.788;4.940;2022-10-16T10:03:40;3.58;;;1.88;;
13609;SDS011;6876;50.788;4.940;2022-10-16T10:06:29;3.75;;;2.20;;
13609;SDS011;6876;50.788;4.940;2022-10-16T10:09:21;2.33;;;1.88;;
13609;SDS011;6876;50.788;4.940;2022-10-16T10:12:16;2.88;;;1.85;;
13609;SDS011;6876;50.788;4.940;2022-10-16T10:15:06;2.88;;;1.92;;
13609;SDS011;6876;50.788;4.940;2022-10-16T10:17:55;4.05;;;1.92;;
13609;SDS011;6876;50.788;4.940;2022-10-16T10:20:43;4.40;;;2.10;;
13609;SDS011;6876;50.788;4.940;2022-10-16T10:23:31;2.75;;;2.10;;
13609;SDS011;6876;50.788;4.940;2022-10-16T10:26:20;6.15;;;3.50;;
13609;SDS011;6876;50.788;4.940;2022-10-16T10:29:15;3.72;;;3.08;;
13609;SDS011;6876;50.788;4.940;2022-10-16T10:32:12;2.80;;;2.60;;
13609;SDS011;6876;50.788;4.940;2022-10-16T10:35:14;4.00;;;2.92;;
13609;SDS011;6876;50.788;4.940;2022-10-16T10:38:09;2.85;;;2.65;;
13609;SDS011;6876;50.788;4.940;2022-10-16T10:41:17;3.75;;;1.80;;
13609;SDS011;6876;50.788;4.940;2022-10-16T10:44:26;5.78;;;2.22;;
13609;SDS011;6876;50.788;4.940;2022-10-16T10:47:27;1.50;;;1.40;;
13609;SDS011;6876;50.788;4.940;2022-10-16T10:50:24;2.45;;;1.45;;
13609;SDS011;6876;50.788;4.940;2022-10-16T10:53:19;2.95;;;1.67;;
13609;SDS011;6876;50.788;4.940;2022-10-16T10:56:20;4.72;;;2.42;;
13609;SDS011;6876;50.788;4.940;2022-10-16T10:59:32;3.05;;;1.77;;
13609;SDS011;6876;50.788;4.940;2022-10-16T11:02:40;2.22;;;1.50;;
13609;SDS011;6876;50.788;4.940;2022-10-16T11:05:33;6.82;;;2.00;;
13609;SDS011;6876;50.788;4.940;2022-10-16T11:08:30;3.20;;;2.30;;
13609;SDS011;6876;50.788;4.940;2022-10-16T11:11:23;5.50;;;2.67;;
13609;SDS011;6876;50.788;4.940;2022-10-16T11:14:18;3.72;;;1.95;;
13609;SDS011;6876;50.788;4.940;2022-10-16T11:17:10;3.70;;;1.92;;
13609;SDS011;6876;50.788;4.940;2022-10-16T11:20:02;2.70;;;1.90;;
13609;SDS011;6876;50.788;4.940;2022-10-16T11:23:00;3.67;;;1.95;;
13609;SDS011;6876;50.788;4.940;2022-10-16T11:25:51;4.18;;;2.53;;
13609;SDS011;6876;50.788;4.940;2022-10-16T11:28:42;3.60;;;3.25;;
13609;SDS011;6876;50.788;4.940;2022-10-16T11:31:35;2.85;;;2.42;;
13609;SDS011;6876;50.788;4.940;2022-10-16T11:34:26;2.80;;;2.22;;
13609;SDS011;6876;50.788;4.940;2022-10-16T11:37:19;3.35;;;1.60;;
13609;SDS011;6876;50.788;4.940;2022-10-16T11:40:14;3.15;;;2.22;;
13609;SDS011;6876;50.788;4.940;2022-10-16T11:43:10;2.63;;;2.20;;
13609;SDS011;6876;50.788;4.940;2022-10-16T11:46:02;3.63;;;1.98;;
13609;SDS011;6876;50.788;4.940;2022-10-16T11:49:00;3.30;;;2.15;;
13609;SDS011;6876;50.788;4.940;2022-10-16T11:51:55;2.05;;;1.65;;
13609;SDS011;6876;50.788;4.940;2022-10-16T11:54:51;4.18;;;2.08;;
13609;SDS011;6876;50.788;4.940;2022-10-16T11:57:42;3.55;;;2.45;;
13609;SDS011;6876;50.788;4.940;2022-10-16T12:00:34;1.80;;;1.70;;
13609;SDS011;6876;50.788;4.940;2022-10-16T12:03:27;2.40;;;1.55;;
13609;SDS011;6876;50.788;4.940;2022-10-16T12:06:27;1.55;;;1.45;;
13609;SDS011;6876;50.788;4.940;2022-10-16T12:09:21;1.67;;;1.48;;
13609;SDS011;6876;50.788;4.940;2022-10-16T12:12:24;3.65;;;2.67;;
13609;SDS011;6876;50.788;4.940;2022-10-16T12:15:20;6.13;;;2.20;;
13609;SDS011;6876;50.788;4.940;2022-10-16T12:18:20;4.13;;;2.40;;
13609;SDS011;6876;50.788;4.940;2022-10-16T12:21:09;1.60;;;1.40;;
13609;SDS011;6876;50.788;4.940;2022-10-16T12:24:00;5.07;;;2.28;;
13609;SDS011;6876;50.788;4.940;2022-10-16T12:26:50;3.65;;;2.08;;
13609;SDS011;6876;50.788;4.940;2022-10-16T12:29:39;3.75;;;1.83;;
13609;SDS011;6876;50.788;4.940;2022-10-16T12:32:30;2.40;;;2.20;;
13609;SDS011;6876;50.788;4.940;2022-10-16T12:35:20;3.42;;;1.40;;
13609;SDS011;6876;50.788;4.940;2022-10-16T12:38:14;2.70;;;2.17;;
13609;SDS011;6876;50.788;4.940;2022-10-16T12:41:06;3.85;;;3.65;;
13609;SDS011;6876;50.788;4.940;2022-10-16T12:43:56;5.43;;;2.90;;
13609;SDS011;6876;50.788;4.940;2022-10-16T12:46:44;3.78;;;2.20;;
13609;SDS011;6876;50.788;4.940;2022-10-16T12:49:34;5.47;;;2.70;;
13609;SDS011;6876;50.788;4.940;2022-10-16T12:52:25;3.03;;;2.55;;
13609;SDS011;6876;50.788;4.940;2022-10-16T12:55:15;3.05;;;2.05;;
13609;SDS011;6876;50.788;4.940;2022-10-16T12:58:08;2.80;;;1.70;;
13609;SDS011;6876;50.788;4.940;2022-10-16T13:01:04;4.38;;;1.88;;
13609;SDS011;6876;50.788;4.940;2022-10-16T13:04:02;2.30;;;1.75;;
13609;SDS011;6876;50.788;4.940;2022-10-16T13:07:05;3.20;;;2.00;;
13609;SDS011;6876;50.788;4.940;2022-10-16T13:10:06;2.10;;;1.48;;
13609;SDS011;6876;50.788;4.940;2022-10-16T13:16:22;3.53;;;2.13;;
13609;SDS011;6876;50.788;4.940;2022-10-16T13:19:18;3.65;;;2.58;;
13609;SDS011;6876;50.788;4.940;2022-10-16T13:22:13;4.07;;;3.10;;
13609;SDS011;6876;50.788;4.940;2022-10-16T13:25:09;3.58;;;2.15;;
13609;SDS011;6876;50.788;4.940;2022-10-16T13:28:07;3.65;;;2.58;;
13609;SDS011;6876;50.788;4.940;2022-10-16T13:30:58;3.35;;;2.80;;
13609;SDS011;6876;50.788;4.940;2022-10-16T13:33:47;3.50;;;2.50;;
13609;SDS011;6876;50.788;4.940;2022-10-16T13:36:42;7.65;;;2.72;;
13609;SDS011;6876;50.788;4.940;2022-10-16T13:39:31;2.55;;;2.35;;
13609;SDS011;6876;50.788;4.940;2022-10-16T13:42:22;5.32;;;2.97;;
13609;SDS011;6876;50.788;4.940;2022-10-16T13:45:16;2.67;;;2.47;;
13609;SDS011;6876;50.788;4.940;2022-10-16T13:48:06;3.03;;;2.40;;
13609;SDS011;6876;50.788;4.940;2022-10-16T13:50:58;2.47;;;2.28;;
13609;SDS011;6876;50.788;4.940;2022-10-16T13:53:46;3.65;;;2.25;;
13609;SDS011;6876;50.788;4.940;2022-10-16T13:56:34;2.53;;;2.35;;
13609;SDS011;6876;50.788;4.940;2022-10-16T13:59:24;3.03;;;1.45;;
13609;SDS011;6876;50.788;4.940;2022-10-16T14:02:16;2.35;;;1.60;;
13609;SDS011;6876;50.788;4.940;2022-10-16T14:05:09;1.83;;;1.55;;
13609;SDS011;6876;50.788;4.940;2022-10-16T14:07:58;3.38;;;2.58;;
13609;SDS011;6876;50.788;4.940;2022-10-16T14:10:47;2.83;;;2.60;;
13609;SDS011;6876;50.788;4.940;2022-10-16T14:13:37;3.08;;;2.47;;
13609;SDS011;6876;50.788;4.940;2022-10-16T14:16:27;4.85;;;2.33;;
13609;SDS011;6876;50.788;4.940;2022-10-16T14:19:18;6.18;;;2.53;;
13609;SDS011;6876;50.788;4.940;2022-10-16T14:22:18;3.47;;;2.50;;
13609;SDS011;6876;50.788;4.940;2022-10-16T14:25:20;2.45;;;2.25;;
13609;SDS011;6876;50.788;4.940;2022-10-16T14:28:15;2.83;;;2.17;;
13609;SDS011;6876;50.788;4.940;2022-10-16T14:31:19;6.15;;;2.60;;
13609;SDS011;6876;50.788;4.940;2022-10-16T14:34:23;4.60;;;3.03;;
13609;SDS011;6876;50.788;4.940;2022-10-16T14:37:19;6.97;;;2.70;;
13609;SDS011;6876;50.788;4.940;2022-10-16T14:40:11;4.38;;;2.58;;
13609;SDS011;6876;50.788;4.940;2022-10-16T14:43:02;6.47;;;2.67;;
13609;SDS011;6876;50.788;4.940;2022-10-16T14:45:50;3.75;;;2.90;;
13609;SDS011;6876;50.788;4.940;2022-10-16T14:48:41;3.30;;;2.97;;
13609;SDS011;6876;50.788;4.940;2022-10-16T14:51:29;4.85;;;2.65;;
13609;SDS011;6876;50.788;4.940;2022-10-16T14:54:18;3.17;;;2.97;;
13609;SDS011;6876;50.788;4.940;2022-10-16T14:57:13;2.60;;;2.38;;
13609;SDS011;6876;50.788;4.940;2022-10-16T15:00:04;3.95;;;3.30;;
13609;SDS011;6876;50.788;4.940;2022-10-16T15:03:00;3.85;;;3.55;;
13609;SDS011;6876;50.788;4.940;2022-10-16T15:05:47;4.05;;;3.67;;
13609;SDS011;6876;50.788;4.940;2022-10-16T15:08:35;4.10;;;3.70;;
13609;SDS011;6876;50.788;4.940;2022-10-16T15:11:23;5.03;;;4.22;;
13609;SDS011;6876;50.788;4.940;2022-10-16T15:14:11;4.78;;;3.88;;
13609;SDS011;6876;50.788;4.940;2022-10-16T15:16:59;4.57;;;3.63;;
13609;SDS011;6876;50.788;4.940;2022-10-16T15:19:46;3.72;;;3.53;;
13609;SDS011;6876;50.788;4.940;2022-10-16T15:22:33;5.15;;;4.80;;
13609;SDS011;6876;50.788;4.940;2022-10-16T15:25:29;4.97;;;4.45;;
13609;SDS011;6876;50.788;4.940;2022-10-16T15:28:20;5.20;;;4.80;;
13609;SDS011;6876;50.788;4.940;2022-10-16T15:31:07;7.10;;;6.60;;
13609;SDS011;6876;50.788;4.940;2022-10-16T15:33:55;5.03;;;4.63;;
13609;SDS011;6876;50.788;4.940;2022-10-16T15:36:46;10.13;;;9.52;;
13609;SDS011;6876;50.788;4.940;2022-10-16T15:39:34;11.38;;;10.63;;
13609;SDS011;6876;50.788;4.940;2022-10-16T15:42:21;6.68;;;6.10;;
13609;SDS011;6876;50.788;4.940;2022-10-16T15:45:10;6.90;;;6.40;;
13609;SDS011;6876;50.788;4.940;2022-10-16T15:47:58;7.07;;;6.50;;
13609;SDS011;6876;50.788;4.940;2022-10-16T15:50:45;9.70;;;9.05;;
13609;SDS011;6876;50.788;4.940;2022-10-16T15:53:33;24.33;;;22.80;;
13609;SDS011;6876;50.788;4.940;2022-10-16T15:56:21;23.63;;;22.30;;
13609;SDS011;6876;50.788;4.940;2022-10-16T15:59:10;27.65;;;25.85;;
13609;SDS011;6876;50.788;4.940;2022-10-16T16:01:59;34.90;;;33.15;;
13609;SDS011;6876;50.788;4.940;2022-10-16T16:04:46;41.92;;;39.55;;
13609;SDS011;6876;50.788;4.940;2022-10-16T16:07:33;44.30;;;42.05;;
13609;SDS011;6876;50.788;4.940;2022-10-16T16:10:21;43.03;;;40.92;;
13609;SDS011;6876;50.788;4.940;2022-10-16T16:13:08;54.03;;;51.38;;
13609;SDS011;6876;50.788;4.940;2022-10-16T16:15:55;66.60;;;63.22;;
13609;SDS011;6876;50.788;4.940;2022-10-16T16:18:44;84.17;;;80.00;;
13609;SDS011;6876;50.788;4.940;2022-10-16T16:21:37;78.60;;;74.60;;
13609;SDS011;6876;50.788;4.940;2022-10-16T16:24:25;33.30;;;31.50;;
13609;SDS011;6876;50.788;4.940;2022-10-16T16:27:12;25.80;;;24.40;;
13609;SDS011;6876;50.788;4.940;2022-10-16T16:30:00;54.08;;;51.28;;
13609;SDS011;6876;50.788;4.940;2022-10-16T16:32:48;51.85;;;49.10;;
13609;SDS011;6876;50.788;4.940;2022-10-16T16:35:37;40.22;;;37.67;;
13609;SDS011;6876;50.788;4.940;2022-10-16T16:38:24;16.33;;;15.13;;
13609;SDS011;6876;50.788;4.940;2022-10-16T16:41:12;10.85;;;10.02;;
13609;SDS011;6876;50.788;4.940;2022-10-16T16:44:01;8.23;;;7.60;;
13609;SDS011;6876;50.788;4.940;2022-10-16T16:46:49;7.78;;;7.18;;
13609;SDS011;6876;50.788;4.940;2022-10-16T16:49:36;8.57;;;7.80;;
13609;SDS011;6876;50.788;4.940;2022-10-16T16:52:25;10.43;;;9.63;;
13609;SDS011;6876;50.788;4.940;2022-10-16T16:55:15;21.73;;;20.50;;
13609;SDS011;6876;50.788;4.940;2022-10-16T16:58:02;22.35;;;20.85;;
13609;SDS011;6876;50.788;4.940;2022-10-16T17:00:50;19.17;;;17.98;;
13609;SDS011;6876;50.788;4.940;2022-10-16T17:03:37;13.48;;;12.57;;
13609;SDS011;6876;50.788;4.940;2022-10-16T17:06:25;11.73;;;11.00;;
13609;SDS011;6876;50.788;4.940;2022-10-16T17:09:16;12.73;;;11.83;;
13609;SDS011;6876;50.788;4.940;2022-10-16T17:12:03;16.67;;;15.37;;
13609;SDS011;6876;50.788;4.940;2022-10-16T17:14:50;15.30;;;14.20;;
13609;SDS011;6876;50.788;4.940;2022-10-16T17:17:38;22.73;;;21.13;;
13609;SDS011;6876;50.788;4.940;2022-10-16T17:20:25;13.57;;;12.68;;
13609;SDS011;6876;50.788;4.940;2022-10-16T17:23:13;17.23;;;15.20;;
13609;SDS011;6876;50.788;4.940;2022-10-16T17:26:06;12.33;;;11.43;;